LSGGBKPR

Guest
Details From LSGG - Geneva
To BKPR - Pristina Intl
Flight Number -
Tags decoded
Created
Modified
Stats Distance 676 nm / 1,252 km
Max Altitude 0 ft / 0 m
Waypoints 2
Social Downloads 0
Likes 0
Share VATSIM

Download

Looking for another format? Having issues loading an existing format? Contact us
Advertisement - Login to hide

Notes

Requested: LSGG BKPR

Route

LSGG BKPR

ID Type Via Altitude Latitude Longitude Leg Dist Tot Dist Heading (true) Name
O LSGG APT - 0 ft / 0 m 46.23775˚ 6.10617˚ - 0 nm - Geneva
O BKPR APT - 0 ft / 0 m 42.57453˚ 21.03568˚ 676 nm 676 nm 104° / 114° Pristina Intl

Altitude Profile

Advertisement - Login to hide

Weather


0- 5 10 15 20 25 30 35+ Temperature / ° C

Clouds and Precipitation
Forecast for 2017-12-13 06:00 UTC. Updated 21 minutes ago

Ground ~20,000 ft ~40,000 ft Winds

LSGG

Details ICAO LSGG (GVA)
Name Geneva
Region Switzerland
Timezone Europe/Zurich (UTC+1.0)
Stats Elevation 1,410 ft / 430 m (AMSL)
Location 46.237755° 6.106173°
Runways 2
Magnetic Variation 1.737° E

METAR

LSGG 130120Z AUTO 29003KT 7000 NCD M04/M04 Q1020 BECMG CAVOK

Decode

TAF

TAF TAF LSGG 122325Z 1300/1406 VRB03KT CAVOK TX04/1315Z TNM04/1306Z TN02/1406Z PROB30 TEMPO 1305/1309 0600 FZFG VV003 BECMG 1309/1311 23010KT 9999 SCT140 TEMPO 1315/1403 24015G25KT PROB40 TEMPO 1318/1403 4500 RA

Decode

Departure Runways

ID Width Length Bearing (true) Bearing (mag) Surface Threshold Offset Overrun Length
05 180 ft / 55 m 12,796 ft / 3,900 m 45.43° 43.69° Concrete 1,079 ft / 329 m 66 ft / 20 m
05L 98 ft / 30 m 2,701 ft / 823 m 45.44° 43.70° Grass 610 ft / 186 m 0 ft / 0 m
23 180 ft / 55 m 12,796 ft / 3,900 m 225.45° 223.71° Concrete 0 ft / 0 m 66 ft / 20 m
23R 98 ft / 30 m 2,701 ft / 823 m 225.45° 223.71° Grass 997 ft / 304 m 0 ft / 0 m

BKPR

Details ICAO BKPR
Name Pristina Intl
Region Kosovo
Timezone Europe/Belgrade (UTC+1.0)
Stats Elevation 1,789 ft / 545 m (AMSL)
Location 42.574531° 21.035685°
Runways 1
Magnetic Variation 4.551° E

METAR

BKPR 130130Z 08005KT 030V140 9999 SCT080 06/01 Q1018 NOSIG RMK 17010095

Decode

TAF

TAF BKPR 122330Z 1300/1324 21008KT 9999 SCT080 BKN150 TEMPO 1303/1308 3000 BR

Decode

Destination Runways

ID Width Length Bearing (true) Bearing (mag) Surface Threshold Offset Overrun Length
17 148 ft / 45 m 8,175 ft / 2,492 m 175.71° 171.16° Asphalt 0 ft / 0 m 98 ft / 30 m
35 148 ft / 45 m 8,175 ft / 2,492 m 355.71° 351.16° Asphalt 0 ft / 0 m 98 ft / 30 m

Approach Navaids

Runway Type Ident Frequency Range Bearing (true) Bearing (mag) Slope Elevation
17 Localiser PRS 110.10 MHz 18 nm / 33 km 175.69° 171.14° - 1,794 ft / 547 m (AMSL)
17 Glidescope PRS 110.10 MHz 10 nm / 19 km 175.71° 171.16° 3.00° 1,794 ft / 547 m (AMSL)
17 DME PRS 110.10 MHz 18 nm / 33 km - - - 1,794 ft / 547 m (AMSL)

Popular Alternatives